North Chicago, IL

5:36 PM CDT on August 27, 2016 (GMT -0500)
NE North Chicago | | Change Station

Elev 656 ft 42.34 °N, 87.84 °W | Updated 31 seconds ago

Partly Cloudy
Partly Cloudy
79.4 °F
Feels Like 84 °F
N
1.0
Wind Variable Wind from ESE

Today
High -- | Low -- °F
--% Chance of Precip.
Yesterday
High -- | Low -- °F
Precip. -- in
Pressure 29.97 in
Visibility 10.0 miles
Clouds Few 3400 ft
Heat Index 84 °F
Dew Point 77 °F
Humidity 93%
Rainfall 0.40 in
Snow Depth Not available.
6:11 AM 7:32 PM
Waning Crescent, 21% visible
METAR KUGN 272155Z 12003KT 10SM FEW034 25/21 A3000 RMK AO2 SLP148 T02500211
Pressure 29.97 in
Visibility 10.0 miles
Clouds Few 3400 ft
Heat Index 84 °F
Dew Point 77 °F
Humidity 93%
Rainfall 0.40 in
Snow Depth Not available.
6:11 AM 7:32 PM
Waning Crescent, 21% visible
METAR KUGN 272155Z 12003KT 10SM FEW034 25/21 A3000 RMK AO2 SLP148 T02500211

10-Day Weather Forecast

Almanac

Astronomy

Aug. 27, 2016 Rise Set
Actual Time
Civil Twilight
Nautical Twilight
Astronomical Twilight
Moon
Length of Visible Light
Length of Day
Tomorrow will be .
, % of the Moon is Illuminated

Today's Extremes

State Highs State Lows

Community

WunderPhotos

Upload Photos

1,935,457 photos uploaded!

WunderBlog® & News

Nearby

Air Quality

  Air Quality AQ Index Pollutant
Not available.

Snow Depth

Station Depth Elevation

Earthquake Activity

City Distance Mag. Time & Date
Minimum magnitude displayed is 2.5.

Coastal Water Temperatures

Place Temperature

Stations

Nearby Weather Stations

Station Location Temp. Windchill Dew Point Humidity Wind Precip. Elev Updated Type
                   

Watches & Warnings

There are currently no watches in effect.